createdAt,value
2023-02-24T00:00:32.427Z,78.30
2023-02-24T00:03:06.033Z,78.00
2023-02-24T00:05:36.084Z,77.30
2023-02-24T00:08:04.270Z,77.00
2023-02-24T00:10:34.058Z,76.70
2023-02-24T00:13:02.299Z,76.40
2023-02-24T00:15:30.509Z,76.70
2023-02-24T00:17:59.340Z,77.00
2023-02-24T00:20:27.509Z,77.80
2023-02-24T00:22:55.619Z,78.10
2023-02-24T00:25:23.785Z,77.10
2023-02-24T00:27:55.650Z,76.80
2023-02-24T00:30:24.085Z,77.40
2023-02-24T00:32:52.313Z,76.10
2023-02-24T00:35:20.477Z,75.70
2023-02-24T00:37:51.336Z,75.60
2023-02-24T00:40:23.380Z,75.70
2023-02-24T00:42:54.035Z,76.10
2023-02-24T00:45:22.409Z,76.60
2023-02-24T00:47:50.534Z,77.20
2023-02-24T00:50:18.984Z,78.00
2023-02-24T00:52:47.104Z,77.60
2023-02-24T00:55:15.498Z,77.80
2023-02-24T00:57:45.259Z,78.00
2023-02-24T01:00:16.620Z,78.00
2023-02-24T01:02:46.070Z,78.10
2023-02-24T01:05:15.278Z,78.20
2023-02-24T01:07:43.362Z,78.10
2023-02-24T01:10:12.967Z,78.60
2023-02-24T01:12:49.669Z,78.50
2023-02-24T01:15:22.275Z,78.20
2023-02-24T01:17:50.452Z,78.60
2023-02-24T01:20:19.745Z,79.00
2023-02-24T01:22:50.117Z,79.30
2023-02-24T01:25:20.237Z,80.90
2023-02-24T01:27:48.461Z,82.60
2023-02-24T01:30:18.390Z,83.30
2023-02-24T01:32:48.628Z,82.30
2023-02-24T01:35:17.669Z,81.70
2023-02-24T01:37:46.309Z,81.20
2023-02-24T01:40:21.670Z,81.40
2023-02-24T01:42:51.735Z,83.50
2023-02-24T01:45:25.133Z,83.80
2023-02-24T01:47:58.480Z,83.90
2023-02-24T01:50:27.769Z,82.80
2023-02-24T01:52:58.862Z,83.10
2023-02-24T01:55:32.178Z,81.80
2023-02-24T01:58:05.965Z,81.50
2023-02-24T02:00:38.311Z,80.90
2023-02-24T02:03:24.191Z,80.80
2023-02-24T02:05:56.117Z,80.80
2023-02-24T02:08:25.932Z,80.80
2023-02-24T02:10:58.885Z,81.20
2023-02-24T02:13:28.358Z,82.10
2023-02-24T02:16:13.670Z,81.80
2023-02-24T02:18:56.692Z,81.90
2023-02-24T02:22:13.826Z,81.80
2023-02-24T02:24:49.703Z,81.80
2023-02-24T02:27:47.638Z,81.70
2023-02-24T02:30:48.527Z,81.60
2023-02-24T02:33:56.225Z,81.60
2023-02-24T02:36:33.180Z,81.50
2023-02-24T02:39:12.518Z,81.40
2023-02-24T02:41:50.809Z,81.10
2023-02-24T02:44:25.032Z,81.10
2023-02-24T02:46:59.259Z,80.70
2023-02-24T02:49:33.280Z,80.60
2023-02-24T02:52:13.735Z,80.10
2023-02-24T02:54:49.759Z,80.10
2023-02-24T02:57:21.499Z,79.90
2023-02-24T02:59:57.460Z,79.30
2023-02-24T03:02:30.598Z,78.80
2023-02-24T03:05:04.118Z,78.50
2023-02-24T03:07:40.481Z,77.80
2023-02-24T03:10:17.647Z,77.30
2023-02-24T03:12:49.076Z,77.60
2023-02-24T03:15:21.061Z,77.50
2023-02-24T03:17:57.317Z,78.00
2023-02-24T03:20:32.762Z,80.80
2023-02-24T03:23:04.985Z,82.30
2023-02-24T03:25:44.513Z,81.10
2023-02-24T03:28:19.776Z,79.80
2023-02-24T03:30:55.275Z,78.70
2023-02-24T03:33:29.809Z,79.50
2023-02-24T03:36:01.789Z,81.20
2023-02-24T03:38:38.338Z,81.30
2023-02-24T03:41:11.298Z,80.00
2023-02-24T03:43:44.959Z,78.90
2023-02-24T03:46:15.070Z,78.20
2023-02-24T03:48:48.737Z,77.80
2023-02-24T03:51:21.390Z,76.70
2023-02-24T03:54:05.738Z,76.50
2023-02-24T03:56:47.902Z,76.40
2023-02-24T03:59:28.040Z,76.00
2023-02-24T04:02:02.833Z,75.80
2023-02-24T04:04:43.285Z,76.00
2023-02-24T04:07:36.565Z,76.10
2023-02-24T04:10:12.748Z,77.60
2023-02-24T04:12:51.626Z,77.80
2023-02-24T04:15:25.731Z,80.20
2023-02-24T04:17:58.583Z,79.60
2023-02-24T04:20:33.507Z,81.70
2023-02-24T04:23:08.671Z,82.90
2023-02-24T04:25:41.499Z,82.30
2023-02-24T04:28:11.257Z,81.10
2023-02-24T04:30:46.903Z,80.10
2023-02-24T04:33:15.176Z,79.50
2023-02-24T04:35:46.484Z,78.60
2023-02-24T04:38:14.729Z,78.40
2023-02-24T04:40:44.389Z,77.80
2023-02-24T04:43:13.045Z,78.30
2023-02-24T04:45:41.239Z,77.20
2023-02-24T04:48:12.993Z,76.90
2023-02-24T04:50:43.292Z,76.30
2023-02-24T04:53:14.713Z,76.10
2023-02-24T04:55:48.793Z,76.10
2023-02-24T04:58:20.212Z,76.10
2023-02-24T05:00:49.495Z,76.60
2023-02-24T05:03:18.367Z,76.90
2023-02-24T05:05:52.016Z,77.30
2023-02-24T05:08:21.011Z,77.90
2023-02-24T05:10:51.861Z,78.10
2023-02-24T05:13:24.411Z,78.20
2023-02-24T05:15:52.785Z,78.60
2023-02-24T05:18:23.839Z,78.90
2023-02-24T05:21:10.866Z,79.10
2023-02-24T05:23:44.174Z,79.80
2023-02-24T05:26:16.976Z,80.90
2023-02-24T05:28:49.189Z,81.60
2023-02-24T05:31:19.957Z,82.70
2023-02-24T05:33:50.512Z,82.00
2023-02-24T05:36:20.100Z,82.30
2023-02-24T05:38:50.277Z,82.40
2023-02-24T05:41:20.813Z,82.50
2023-02-24T05:43:54.838Z,82.80
2023-02-24T05:46:28.216Z,83.00
2023-02-24T05:48:57.969Z,83.30
2023-02-24T05:51:26.838Z,84.70
2023-02-24T05:53:55.963Z,84.10
2023-02-24T05:56:27.372Z,84.50
2023-02-24T05:59:02.052Z,85.10
2023-02-24T06:01:31.407Z,85.20
2023-02-24T06:04:05.711Z,86.10
2023-02-24T06:06:38.801Z,85.80
2023-02-24T06:09:10.762Z,86.50
2023-02-24T06:11:41.935Z,86.80
2023-02-24T06:14:11.283Z,87.10
2023-02-24T06:16:41.182Z,87.10
2023-02-24T06:19:11.506Z,87.90
2023-02-24T06:21:41.766Z,87.00
2023-02-24T06:24:14.513Z,86.90
2023-02-24T06:26:44.380Z,86.90
2023-02-24T06:29:14.927Z,86.80
2023-02-24T06:31:44.104Z,86.70
2023-02-24T06:34:13.334Z,87.00
2023-02-24T06:36:43.148Z,87.10
2023-02-24T06:39:14.479Z,87.10
2023-02-24T06:41:44.187Z,87.90
2023-02-24T06:44:13.810Z,87.40
2023-02-24T06:46:42.308Z,87.10
2023-02-24T06:49:11.581Z,86.70
2023-02-24T06:51:39.887Z,87.20
2023-02-24T06:54:08.213Z,86.70
2023-02-24T06:56:39.416Z,86.80
2023-02-24T06:59:12.012Z,87.10
2023-02-24T07:01:45.128Z,87.10
2023-02-24T07:04:20.983Z,87.70
2023-02-24T07:06:52.526Z,88.10
2023-02-24T07:09:23.432Z,88.20
2023-02-24T07:11:53.341Z,88.00
2023-02-24T07:14:25.612Z,87.90
2023-02-24T07:16:55.485Z,86.60
2023-02-24T07:19:25.996Z,86.30
2023-02-24T07:22:00.315Z,86.70
2023-02-24T07:24:36.016Z,87.80
2023-02-24T07:27:06.396Z,87.30
2023-02-24T07:29:37.795Z,87.20
2023-02-24T07:32:08.728Z,87.10
2023-02-24T07:34:40.002Z,87.20
2023-02-24T07:37:09.662Z,87.80
2023-02-24T07:39:39.380Z,87.80
2023-02-24T07:42:09.340Z,86.90
2023-02-24T07:44:49.205Z,87.50
2023-02-24T07:47:17.731Z,87.40
2023-02-24T07:49:46.145Z,87.00
2023-02-24T07:52:14.374Z,86.70
2023-02-24T07:54:43.162Z,86.90
2023-02-24T07:57:14.227Z,86.70
2023-02-24T07:59:47.802Z,86.70
2023-02-24T08:02:18.543Z,86.70
2023-02-24T08:04:50.530Z,86.70
2023-02-24T08:07:24.826Z,87.00
2023-02-24T08:10:14.418Z,87.10
2023-02-24T08:12:43.801Z,87.10
2023-02-24T08:15:24.220Z,87.30
2023-02-24T08:17:59.551Z,87.30
2023-02-24T08:20:30.195Z,87.70
2023-02-24T08:22:58.510Z,87.10
2023-02-24T08:25:35.945Z,86.60
2023-02-24T08:28:09.504Z,86.60
2023-02-24T08:30:40.766Z,87.20
2023-02-24T08:33:15.851Z,89.40
2023-02-24T08:35:45.696Z,91.20
2023-02-24T08:38:16.636Z,90.50
2023-02-24T08:40:54.764Z,90.00
2023-02-24T08:43:33.225Z,90.40
2023-02-24T08:46:06.510Z,91.30
2023-02-24T08:48:38.888Z,92.60
2023-02-24T08:51:12.127Z,92.40
2023-02-24T08:53:41.493Z,90.90
2023-02-24T08:56:11.786Z,91.00
2023-02-24T08:58:47.672Z,91.90
2023-02-24T09:01:24.619Z,91.90
2023-02-24T09:03:57.178Z,91.80
2023-02-24T09:06:38.480Z,90.80
2023-02-24T09:09:21.134Z,90.80
2023-02-24T09:11:56.199Z,90.80
2023-02-24T09:14:28.815Z,90.60
2023-02-24T09:17:07.034Z,90.70
2023-02-24T09:20:11.417Z,90.60
2023-02-24T09:22:57.947Z,91.20
2023-02-24T09:25:40.869Z,91.50
2023-02-24T09:28:11.100Z,91.50
2023-02-24T09:30:51.557Z,91.70
2023-02-24T09:33:22.373Z,91.90
2023-02-24T09:36:02.862Z,91.70
2023-02-24T09:38:49.003Z,91.70
2023-02-24T09:41:31.969Z,91.60
2023-02-24T09:44:03.822Z,93.00
2023-02-24T09:46:42.626Z,92.10
2023-02-24T09:49:18.239Z,91.90
2023-02-24T09:51:57.906Z,92.00
2023-02-24T09:54:29.000Z,94.30
2023-02-24T09:57:08.566Z,94.10
2023-02-24T10:00:01.620Z,93.90
2023-02-24T10:02:45.470Z,93.30
2023-02-24T10:05:27.365Z,93.70
2023-02-24T10:08:00.542Z,95.50
2023-02-24T10:10:35.824Z,95.50
2023-02-24T10:13:14.868Z,93.90
2023-02-24T10:15:59.675Z,92.80
2023-02-24T10:18:31.730Z,91.90
2023-02-24T10:21:07.560Z,91.50
2023-02-24T10:23:56.568Z,91.30
2023-02-24T10:26:51.310Z,91.60
2023-02-24T10:29:40.436Z,91.10
2023-02-24T10:32:24.611Z,90.80
2023-02-24T10:34:53.560Z,90.60
2023-02-24T10:37:28.574Z,90.30
2023-02-24T10:40:00.756Z,90.00
2023-02-24T10:42:31.931Z,90.20
2023-02-24T10:45:18.098Z,89.80
2023-02-24T10:47:57.039Z,89.80
2023-02-24T10:50:31.936Z,89.80
2023-02-24T10:53:26.591Z,90.40
2023-02-24T10:56:15.325Z,90.70
2023-02-24T10:58:56.646Z,93.00
2023-02-24T11:01:40.986Z,95.10
2023-02-24T11:04:22.997Z,95.50
2023-02-24T11:06:55.830Z,97.00
2023-02-24T11:09:43.995Z,96.50
2023-02-24T11:12:38.571Z,97.20
2023-02-24T11:15:33.711Z,95.80
2023-02-24T11:18:02.179Z,95.70
2023-02-24T11:20:48.071Z,94.40
2023-02-24T11:23:21.225Z,93.30
2023-02-24T11:25:51.102Z,92.80
2023-02-24T11:28:35.087Z,92.10
2023-02-24T11:31:13.387Z,92.60
2023-02-24T11:33:47.448Z,91.10
2023-02-24T11:36:27.714Z,90.60
2023-02-24T11:39:18.770Z,90.40
2023-02-24T11:41:53.145Z,90.00
2023-02-24T11:44:29.110Z,90.60
2023-02-24T11:47:01.142Z,89.80
2023-02-24T11:49:33.181Z,89.60
2023-02-24T11:52:05.190Z,89.60
2023-02-24T11:54:39.919Z,89.20
2023-02-24T11:57:15.374Z,92.00
2023-02-24T11:59:48.115Z,93.10
2023-02-24T12:02:23.950Z,92.90
2023-02-24T12:04:59.693Z,93.80
2023-02-24T12:07:33.865Z,94.20
2023-02-24T12:10:16.625Z,93.80
2023-02-24T12:12:52.643Z,92.60
2023-02-24T12:15:26.564Z,92.00
2023-02-24T12:18:04.417Z,90.90
2023-02-24T12:20:38.375Z,91.70
2023-02-24T12:23:18.050Z,92.80
2023-02-24T12:26:09.136Z,92.80
2023-02-24T12:28:59.917Z,92.50
2023-02-24T12:31:39.020Z,92.90
2023-02-24T12:34:14.482Z,93.80
2023-02-24T12:37:00.355Z,92.60
2023-02-24T12:39:32.710Z,91.20
2023-02-24T12:42:12.357Z,90.80
2023-02-24T12:44:49.736Z,89.90
2023-02-24T12:47:26.831Z,89.30
2023-02-24T12:50:18.021Z,90.50
2023-02-24T12:52:57.633Z,89.40
2023-02-24T12:55:31.904Z,90.10
2023-02-24T12:58:08.253Z,89.70
2023-02-24T13:00:47.753Z,90.10
2023-02-24T13:03:32.871Z,88.80
2023-02-24T13:06:08.202Z,88.80
2023-02-24T13:08:48.194Z,89.50
2023-02-24T13:11:24.518Z,90.10
2023-02-24T13:14:01.478Z,89.20
2023-02-24T13:16:30.934Z,88.70
2023-02-24T13:19:18.941Z,88.00
2023-02-24T13:21:56.981Z,88.60
2023-02-24T13:24:27.581Z,88.20
2023-02-24T13:27:20.666Z,88.30
2023-02-24T13:29:50.874Z,88.80
2023-02-24T13:32:32.632Z,88.50
2023-02-24T13:35:05.418Z,87.70
2023-02-24T13:37:36.723Z,87.50
2023-02-24T13:40:23.355Z,87.70
2023-02-24T13:43:00.898Z,87.40
2023-02-24T13:45:30.956Z,87.30
2023-02-24T13:48:23.087Z,87.40
2023-02-24T13:51:08.281Z,87.80
2023-02-24T13:53:51.620Z,88.00
2023-02-24T13:56:30.065Z,87.80
2023-02-24T13:59:27.051Z,87.70
2023-02-24T14:02:00.703Z,88.10
2023-02-24T14:04:31.372Z,87.40
2023-02-24T14:07:03.833Z,87.30
2023-02-24T14:09:34.354Z,87.40
2023-02-24T14:12:05.554Z,87.60
2023-02-24T14:20:33.944Z,88.70
2023-02-24T14:23:04.063Z,88.90
2023-02-24T14:25:37.170Z,88.80
2023-02-24T14:28:05.794Z,88.90
2023-02-24T14:30:36.621Z,90.10
2023-02-24T14:33:07.324Z,90.00
2023-02-24T14:35:37.706Z,90.00
2023-02-24T14:38:07.399Z,89.70
2023-02-24T14:40:35.671Z,89.80
2023-02-24T14:43:04.219Z,89.70
2023-02-24T14:45:32.373Z,89.60
2023-02-24T14:48:00.478Z,88.80
2023-02-24T14:50:31.693Z,88.80
2023-02-24T14:53:06.062Z,88.80
2023-02-24T14:55:38.632Z,89.20
2023-02-24T14:58:14.963Z,89.60
2023-02-24T15:00:48.405Z,89.60
2023-02-24T15:03:21.273Z,89.20
2023-02-24T15:05:52.743Z,89.10
2023-02-24T15:08:32.739Z,88.90
2023-02-24T15:11:05.625Z,89.10
2023-02-24T15:13:39.341Z,89.10
2023-02-24T15:16:13.895Z,89.30
2023-02-24T15:18:43.741Z,89.10
2023-02-24T15:21:22.134Z,88.60
2023-02-24T15:23:50.529Z,87.90
2023-02-24T15:26:32.278Z,87.40
2023-02-24T15:29:02.411Z,87.10
2023-02-24T15:31:30.974Z,86.80
2023-02-24T15:34:01.086Z,86.80
2023-02-24T15:36:32.964Z,86.50
2023-02-24T15:39:04.421Z,86.30
2023-02-24T15:41:45.037Z,86.50
2023-02-24T15:44:27.763Z,86.40
2023-02-24T15:46:56.499Z,86.60
2023-02-24T15:49:24.944Z,86.60
2023-02-24T15:51:55.584Z,86.40
2023-02-24T15:54:31.605Z,86.30
2023-02-24T15:57:03.377Z,86.20
2023-02-24T15:59:31.910Z,86.70
2023-02-24T16:02:00.101Z,85.80
2023-02-24T16:04:28.290Z,86.20
2023-02-24T16:06:58.472Z,86.10
2023-02-24T16:09:33.834Z,86.10
2023-02-24T16:12:04.567Z,86.00
2023-02-24T16:14:33.794Z,86.30
2023-02-24T16:17:08.851Z,86.50
2023-02-24T16:19:38.071Z,86.80
2023-02-24T16:22:06.215Z,86.80
2023-02-24T16:24:34.456Z,86.90
2023-02-24T16:27:04.001Z,87.30
2023-02-24T16:29:32.186Z,87.20
2023-02-24T16:32:00.694Z,87.10
2023-02-24T16:34:29.083Z,87.50
2023-02-24T16:36:57.232Z,87.00
2023-02-24T16:39:25.293Z,87.00
2023-02-24T16:41:53.659Z,86.20
2023-02-24T16:44:23.428Z,87.30
2023-02-24T16:46:52.896Z,86.20
2023-02-24T16:49:22.264Z,85.90
2023-02-24T16:51:50.357Z,86.90
2023-02-24T16:54:21.897Z,87.20
2023-02-24T16:56:50.878Z,88.30
2023-02-24T16:59:18.980Z,89.30
2023-02-24T17:01:48.679Z,89.10
2023-02-24T17:04:16.874Z,89.40
2023-02-24T17:06:45.023Z,89.30
2023-02-24T17:09:15.554Z,89.10
2023-02-24T17:11:44.007Z,92.30
2023-02-24T17:14:17.234Z,94.30
2023-02-24T17:16:45.787Z,93.10
2023-02-24T17:19:15.362Z,94.80
2023-02-24T17:21:45.135Z,96.30
2023-02-24T17:24:16.718Z,94.70
2023-02-24T17:26:45.116Z,94.20
2023-02-24T17:29:14.772Z,94.30
2023-02-24T17:31:43.632Z,93.00
2023-02-24T17:34:12.154Z,94.70
2023-02-24T17:36:41.801Z,93.80
2023-02-24T17:39:10.261Z,93.80
2023-02-24T17:41:38.675Z,94.40
2023-02-24T17:44:06.840Z,94.80
2023-02-24T17:46:35.153Z,96.20
2023-02-24T17:49:05.022Z,95.80
2023-02-24T17:51:33.273Z,97.70
2023-02-24T17:54:06.224Z,96.70
2023-02-24T17:56:34.701Z,96.50
2023-02-24T17:59:03.146Z,94.90
2023-02-24T18:01:31.465Z,95.50
2023-02-24T18:03:59.761Z,93.90
2023-02-24T18:06:28.317Z,93.50
2023-02-24T18:08:56.576Z,95.40
2023-02-24T18:11:26.196Z,96.20
2023-02-24T18:13:56.741Z,96.70
2023-02-24T18:16:26.058Z,93.90
2023-02-24T18:18:54.532Z,92.80
2023-02-24T18:21:22.826Z,91.10
2023-02-24T18:23:51.271Z,89.20
2023-02-24T18:26:21.469Z,88.80
2023-02-24T18:28:53.931Z,90.40
2023-02-24T18:31:23.753Z,92.50
2023-02-24T18:33:52.502Z,92.80
2023-02-24T18:36:21.520Z,91.00
2023-02-24T18:38:50.117Z,89.10
2023-02-24T18:41:21.429Z,88.30
2023-02-24T18:43:52.445Z,87.70
2023-02-24T18:46:21.463Z,87.10
2023-02-24T18:48:51.126Z,86.30
2023-02-24T18:51:22.411Z,87.30
2023-02-24T18:53:52.772Z,88.50
2023-02-24T18:56:23.501Z,87.60
2023-02-24T18:58:56.491Z,86.00
2023-02-24T19:01:27.993Z,84.80
2023-02-24T19:03:56.532Z,83.90
2023-02-24T19:06:27.254Z,83.80
2023-02-24T19:08:59.053Z,84.20
2023-02-24T19:11:27.954Z,84.60
2023-02-24T19:13:57.549Z,84.60
2023-02-24T19:16:26.375Z,84.20
2023-02-24T19:18:56.609Z,83.90
2023-02-24T19:21:25.398Z,82.30
2023-02-24T19:23:53.980Z,84.80
2023-02-24T19:26:24.863Z,84.50
2023-02-24T19:28:53.346Z,84.20
2023-02-24T19:31:25.754Z,83.80
2023-02-24T19:33:54.393Z,83.80
2023-02-24T19:36:23.770Z,82.50
2023-02-24T19:38:52.391Z,82.90
2023-02-24T19:41:20.698Z,80.10
2023-02-24T19:43:49.208Z,80.20
2023-02-24T19:46:18.188Z,83.60
2023-02-24T19:48:48.528Z,83.60
2023-02-24T19:51:18.681Z,83.60
2023-02-24T19:53:47.178Z,82.80
2023-02-24T19:56:15.928Z,82.70
2023-02-24T19:58:44.215Z,81.60
2023-02-24T20:01:14.341Z,81.50
2023-02-24T20:03:44.184Z,80.60
2023-02-24T20:06:20.470Z,80.30
2023-02-24T20:08:49.209Z,80.20
2023-02-24T20:11:18.616Z,79.90
2023-02-24T20:13:47.725Z,80.20
2023-02-24T20:16:17.876Z,80.10
2023-02-24T20:18:46.800Z,80.00
2023-02-24T20:21:15.485Z,80.10
2023-02-24T20:23:45.022Z,80.30
2023-02-24T20:26:16.282Z,80.00
2023-02-24T20:28:44.670Z,79.50
2023-02-24T20:31:15.643Z,80.10
2023-02-24T20:33:45.142Z,79.20
2023-02-24T20:36:15.861Z,73.90
2023-02-24T20:38:45.520Z,71.50
2023-02-24T20:41:13.755Z,74.50
2023-02-24T20:43:42.001Z,77.30
2023-02-24T20:46:14.869Z,76.90
2023-02-24T20:48:43.314Z,77.60
2023-02-24T20:51:13.325Z,77.30
2023-02-24T20:53:56.011Z,74.20
2023-02-24T20:56:27.640Z,75.00
2023-02-24T20:58:59.939Z,74.90
2023-02-24T21:01:29.356Z,74.10
2023-02-24T21:03:58.005Z,74.50
2023-02-24T21:06:26.533Z,75.10
2023-02-24T21:08:55.381Z,75.00
2023-02-24T21:11:24.328Z,75.40
2023-02-24T21:13:54.599Z,75.40
2023-02-24T21:16:23.468Z,74.90
2023-02-24T21:18:53.287Z,75.50
2023-02-24T21:21:22.040Z,73.70
2023-02-24T21:23:51.206Z,73.60
2023-02-24T21:26:20.498Z,73.60
2023-02-24T21:28:49.546Z,74.80
2023-02-24T21:31:21.867Z,68.70
2023-02-24T21:33:53.946Z,71.10
2023-02-24T21:36:26.514Z,72.10
2023-02-24T21:38:55.420Z,71.40
2023-02-24T21:41:24.800Z,71.20
2023-02-24T21:43:55.574Z,73.70
2023-02-24T21:46:28.860Z,70.90
2023-02-24T21:48:58.246Z,72.20
2023-02-24T21:51:27.932Z,71.30
2023-02-24T21:53:57.098Z,71.30
2023-02-24T21:56:27.710Z,70.70
2023-02-24T21:58:59.093Z,71.10
2023-02-24T22:01:30.726Z,72.90
2023-02-24T22:04:01.402Z,72.90
2023-02-24T22:06:32.096Z,72.90
2023-02-24T22:09:00.968Z,74.20
2023-02-24T22:11:31.826Z,72.80
2023-02-24T22:14:00.264Z,70.00
2023-02-24T22:16:30.171Z,72.50
2023-02-24T22:18:58.622Z,72.50
2023-02-24T22:21:29.174Z,71.60
2023-02-24T22:23:59.382Z,71.40
2023-02-24T22:26:29.957Z,71.40
2023-02-24T22:28:59.056Z,71.20
2023-02-24T22:31:30.768Z,72.40
2023-02-24T22:33:59.915Z,71.50
2023-02-24T22:36:30.147Z,72.80
2023-02-24T22:38:59.630Z,72.40
2023-02-24T22:41:29.588Z,69.80
2023-02-24T22:43:57.776Z,71.70
2023-02-24T22:46:28.064Z,72.60
2023-02-24T22:48:58.458Z,70.00
2023-02-24T22:51:27.994Z,69.50
2023-02-24T22:53:56.778Z,70.50
2023-02-24T22:56:27.841Z,71.60
2023-02-24T22:58:56.630Z,73.20
2023-02-24T23:01:27.514Z,72.10
2023-02-24T23:03:57.217Z,72.70
2023-02-24T23:06:29.583Z,73.20
2023-02-24T23:08:59.202Z,72.40
2023-02-24T23:11:29.782Z,72.50
2023-02-24T23:13:59.620Z,72.50
2023-02-24T23:16:31.560Z,71.00
2023-02-24T23:19:05.673Z,69.10
2023-02-24T23:21:35.896Z,71.10
2023-02-24T23:24:04.834Z,72.00
2023-02-24T23:26:33.820Z,71.10
2023-02-24T23:29:02.216Z,69.10
2023-02-24T23:31:30.629Z,69.60
2023-02-24T23:34:01.619Z,68.90
2023-02-24T23:36:29.925Z,69.00
2023-02-24T23:38:58.102Z,69.60
2023-02-24T23:41:26.285Z,69.10
2023-02-24T23:43:54.913Z,70.30
2023-02-24T23:46:23.605Z,69.00
2023-02-24T23:48:52.871Z,69.80
2023-02-24T23:51:22.561Z,70.20
2023-02-24T23:53:50.952Z,70.50
2023-02-24T23:56:21.839Z,71.50
2023-02-24T23:58:51.971Z,71.20
